Portada
METAR-TAF:

METAR-TAF

Aeroports :

Tapachula, Mèxic

latitud: 14-47N, longitud: 092-23W, altitud: 29 m

Observació

L'informe es va fer fa 40 minuts, a les 23:53 UTC
Vent 3 kt del Sud-Oest
Temperatura 27°C
Humitat 74%
Pressió 1012 hPa
Visibilitat: 12.9 km
Cel clar

METAR: MMTP 172353Z 23003KT 8SM SKC 27/22 A2988 RMK SLP143 52003 900

Hora: 18:33 (00:33 UTC)

Pronòstic

L'informe es va fer fa 1 hora i 9 minuts, a les 23:24 UTC
Pronòstic vàlid del 18 a les 00 UTC al 19 a les 06 UTC
Vent 10 kt del Oest/Sud-Oest
Visibilitat: 10 km
Núvols disperses a una alçada de 3000 ft
Evolucionant progressivament
l' 18 a les 05 UTC al 18 a les 06 UTC
Vent kt del Nord
A partir de les 18 a les 1600 UTC
Vent 10 kt del Nord/Nord-Est
Visibilitat: 10 km
Núvols disperses a una alçada de 2000 ft
Evolucionant progressivament
l' 19 a les 00 UTC al 19 a les 01 UTC
Vent kt del Nord

TAF: MMTP 172324Z 1800/1906 24010KT P6SM SCT030 BECMG 1805/1806 00000KT FM181600 02010KT P6SM SCT020 BECMG 1900/1901 00000KT

Observacions i pronòstics meteorològics de més de 4000 aeroports (METAR i TAF).

Les estacions disponibles són els punts grocs i vermells al mapa.

Posi el ratolí al punt desitjat per veure el nom de l'estació.

Feu clic per veure les observacions i els pronòstics meteorològics.

Per canviar el mapa: feu clic els botons verds amb una creu de color negre per apropar; al botó verd amb un guió per allunyar la imatge; o en les fletxes verdes per a mapes adjacents.


METAR-TAF: